createdAt,value
2018-07-04T00:00:46.090Z,5.25
2018-07-04T00:01:43.603Z,5.05
2018-07-04T00:02:40.064Z,5.25
2018-07-04T00:03:36.489Z,5.72
2018-07-04T00:04:32.960Z,6.05
2018-07-04T00:05:29.241Z,5.70
2018-07-04T00:06:25.619Z,6.55
2018-07-04T00:07:21.973Z,5.37
2018-07-04T00:08:18.611Z,5.67
2018-07-04T00:09:15.393Z,5.47
2018-07-04T00:10:11.951Z,5.47
2018-07-04T00:11:08.379Z,5.08
2018-07-04T00:12:04.893Z,5.53
2018-07-04T00:13:01.325Z,5.58
2018-07-04T00:13:57.623Z,5.35
2018-07-04T00:14:54.200Z,5.67
2018-07-04T00:15:50.767Z,5.53
2018-07-04T00:16:47.451Z,5.92
2018-07-04T00:17:43.953Z,5.90
2018-07-04T00:18:40.289Z,5.37
2018-07-04T00:19:36.907Z,5.37
2018-07-04T00:20:39.417Z,5.55
2018-07-04T00:21:35.717Z,5.65
2018-07-04T00:22:32.393Z,5.50
2018-07-04T00:23:28.846Z,5.10
2018-07-04T00:24:25.398Z,5.75
2018-07-04T00:25:21.797Z,5.45
2018-07-04T00:26:18.362Z,5.78
2018-07-04T00:27:14.843Z,5.87
2018-07-04T00:28:11.428Z,5.70
2018-07-04T00:29:07.966Z,5.20
2018-07-04T00:30:04.651Z,6.53
2018-07-04T00:31:01.271Z,5.65
2018-07-04T00:31:57.775Z,4.95
2018-07-04T00:32:54.277Z,5.50
2018-07-04T00:33:50.731Z,5.83
2018-07-04T00:34:47.582Z,5.35
2018-07-04T00:35:44.151Z,5.87
2018-07-04T00:36:40.619Z,5.67
2018-07-04T00:37:37.117Z,5.25
2018-07-04T00:38:33.844Z,5.30
2018-07-04T00:39:30.539Z,5.03
2018-07-04T00:40:27.309Z,5.37
2018-07-04T00:41:23.649Z,5.20
2018-07-04T00:42:20.187Z,5.22
2018-07-04T00:43:16.669Z,5.20
2018-07-04T00:44:13.215Z,5.78
2018-07-04T00:45:09.751Z,5.30
2018-07-04T00:46:06.301Z,5.58
2018-07-04T00:47:02.731Z,5.12
2018-07-04T00:47:59.287Z,5.97
2018-07-04T00:48:55.991Z,5.37
2018-07-04T00:49:52.575Z,5.45
2018-07-04T00:50:49.129Z,5.25
2018-07-04T00:51:45.579Z,5.30
2018-07-04T00:52:42.139Z,5.92
2018-07-04T00:53:38.487Z,6.95
2018-07-04T00:54:35.315Z,5.70
2018-07-04T00:55:31.813Z,5.80
2018-07-04T00:56:28.300Z,5.90
2018-07-04T00:57:24.845Z,5.45
2018-07-04T00:58:21.311Z,6.60
2018-07-04T00:59:17.731Z,6.10
2018-07-04T01:00:14.155Z,5.45
2018-07-04T01:01:10.911Z,5.62
2018-07-04T01:02:07.592Z,5.65
2018-07-04T01:03:04.131Z,5.40
2018-07-04T01:04:00.651Z,5.90
2018-07-04T01:04:57.463Z,6.20
2018-07-04T01:05:53.973Z,6.12
2018-07-04T01:06:50.415Z,5.87
2018-07-04T01:07:46.977Z,5.42
2018-07-04T01:08:43.478Z,5.42
2018-07-04T01:09:39.884Z,5.30
2018-07-04T01:10:36.271Z,6.00
2018-07-04T01:11:32.705Z,5.65
2018-07-04T01:12:29.192Z,5.70
2018-07-04T01:13:29.055Z,5.65
2018-07-04T01:14:25.643Z,5.95
2018-07-04T01:15:22.117Z,5.30
2018-07-04T01:16:18.951Z,5.58
2018-07-04T01:17:15.459Z,5.42
2018-07-04T01:18:12.079Z,5.70
2018-07-04T01:19:08.548Z,5.87
2018-07-04T01:20:05.011Z,6.28
2018-07-04T01:21:07.547Z,5.80
2018-07-04T01:22:04.026Z,5.47
2018-07-04T01:23:00.453Z,5.67
2018-07-04T01:23:56.962Z,5.40
2018-07-04T01:24:53.492Z,5.83
2018-07-04T01:25:50.038Z,5.95
2018-07-04T01:26:46.566Z,5.47
2018-07-04T01:27:43.279Z,5.78
2018-07-04T01:28:45.712Z,6.45
2018-07-04T01:29:42.358Z,6.40
2018-07-04T01:30:38.822Z,5.83
2018-07-04T01:31:35.326Z,6.00
2018-07-04T01:32:31.766Z,5.65
2018-07-04T01:33:28.494Z,5.85
2018-07-04T01:34:25.204Z,6.00
2018-07-04T01:35:21.844Z,6.25
2018-07-04T01:36:18.364Z,6.25
2018-07-04T01:37:14.787Z,6.30
2018-07-04T01:38:11.394Z,7.00
2018-07-04T01:39:07.936Z,6.50
2018-07-04T01:40:04.620Z,6.55
2018-07-04T01:41:01.216Z,7.12
2018-07-04T01:41:57.898Z,6.00
2018-07-04T01:42:54.454Z,6.80
2018-07-04T01:43:50.902Z,6.00
2018-07-04T01:44:47.304Z,6.60
2018-07-04T01:45:43.940Z,6.55
2018-07-04T01:46:40.529Z,6.60
2018-07-04T01:47:37.038Z,6.70
2018-07-04T01:48:33.722Z,6.70
2018-07-04T01:49:30.242Z,6.10
2018-07-04T01:50:26.740Z,6.78
2018-07-04T01:51:23.098Z,7.92
2018-07-04T01:52:19.528Z,8.60
2018-07-04T01:53:16.140Z,8.65
2018-07-04T01:54:12.550Z,8.93
2018-07-04T01:55:09.432Z,9.85
2018-07-04T01:56:05.995Z,8.95
2018-07-04T01:57:02.596Z,9.38
2018-07-04T01:57:59.090Z,8.20
2018-07-04T01:58:55.615Z,8.35
2018-07-04T01:59:52.170Z,8.20
2018-07-04T02:00:48.627Z,7.37
2018-07-04T02:01:45.078Z,7.58
2018-07-04T02:02:41.510Z,7.45
2018-07-04T02:03:38.140Z,7.70
2018-07-04T02:04:34.740Z,7.33
2018-07-04T02:05:31.287Z,7.35
2018-07-04T02:06:27.792Z,7.78
2018-07-04T02:07:24.206Z,7.87
2018-07-04T02:08:20.738Z,7.30
2018-07-04T02:09:17.376Z,7.08
2018-07-04T02:10:14.119Z,7.60
2018-07-04T02:11:10.516Z,6.70
2018-07-04T02:12:07.048Z,7.05
2018-07-04T02:13:03.690Z,7.78
2018-07-04T02:14:00.426Z,6.62
2018-07-04T02:14:57.034Z,6.42
2018-07-04T02:15:53.642Z,6.47
2018-07-04T02:16:50.174Z,6.17
2018-07-04T02:17:46.696Z,6.67
2018-07-04T02:18:43.156Z,6.40
2018-07-04T02:19:39.677Z,6.17
2018-07-04T02:20:36.372Z,6.33
2018-07-04T02:21:32.967Z,6.65
2018-07-04T02:22:29.511Z,6.37
2018-07-04T02:23:26.073Z,6.65
2018-07-04T02:24:22.598Z,5.87
2018-07-04T02:25:19.116Z,6.30
2018-07-04T02:26:15.750Z,6.53
2018-07-04T02:27:12.328Z,6.53
2018-07-04T02:28:09.042Z,6.53
2018-07-04T02:29:05.625Z,6.60
2018-07-04T02:30:02.349Z,6.42
2018-07-04T02:30:58.938Z,7.45
2018-07-04T02:31:56.156Z,6.83
2018-07-04T02:32:52.664Z,6.78
2018-07-04T02:33:49.460Z,6.37
2018-07-04T02:34:45.941Z,6.40
2018-07-04T02:35:42.385Z,6.80
2018-07-04T02:36:38.965Z,7.05
2018-07-04T02:37:35.652Z,6.83
2018-07-04T02:38:32.121Z,6.72
2018-07-04T02:39:28.630Z,7.08
2018-07-04T02:40:25.174Z,6.97
2018-07-04T02:41:21.682Z,7.60
2018-07-04T02:42:18.127Z,7.25
2018-07-04T02:43:14.542Z,7.80
2018-07-04T02:44:11.302Z,7.20
2018-07-04T02:45:07.956Z,7.10
2018-07-04T02:46:04.506Z,7.35
2018-07-04T02:47:00.946Z,8.23
2018-07-04T02:47:57.384Z,8.48
2018-07-04T02:48:53.896Z,8.43
2018-07-04T02:49:50.328Z,8.58
2018-07-04T02:50:46.714Z,8.73
2018-07-04T02:51:43.276Z,8.28
2018-07-04T02:52:39.710Z,8.65
2018-07-04T02:53:36.294Z,8.20
2018-07-04T02:54:32.936Z,9.05
2018-07-04T02:55:29.439Z,7.67
2018-07-04T02:56:25.990Z,8.63
2018-07-04T02:57:22.524Z,7.28
2018-07-04T02:58:18.977Z,7.60
2018-07-04T02:59:15.283Z,7.62
2018-07-04T03:00:11.444Z,7.97
2018-07-04T03:01:07.674Z,6.75
2018-07-04T03:02:03.742Z,7.40
2018-07-04T03:03:00.055Z,7.03
2018-07-04T03:03:56.440Z,6.85
2018-07-04T03:04:52.947Z,7.03
2018-07-04T03:05:49.463Z,7.17
2018-07-04T03:06:46.305Z,7.30
2018-07-04T03:07:42.973Z,8.18
2018-07-04T03:08:39.430Z,7.33
2018-07-04T03:09:35.956Z,7.72
2018-07-04T03:10:32.970Z,7.50
2018-07-04T03:11:29.586Z,8.18
2018-07-04T03:12:26.142Z,7.42
2018-07-04T03:13:22.797Z,8.18
2018-07-04T03:14:19.467Z,7.92
2018-07-04T03:15:15.963Z,7.50
2018-07-04T03:16:12.421Z,7.97
2018-07-04T03:17:08.968Z,7.50
2018-07-04T03:18:05.613Z,7.47
2018-07-04T03:19:02.301Z,8.35
2018-07-04T03:19:58.842Z,8.63
2018-07-04T03:20:55.471Z,7.87
2018-07-04T03:21:51.940Z,7.22
2018-07-04T03:22:48.586Z,7.35
2018-07-04T03:23:45.330Z,7.40
2018-07-04T03:24:41.650Z,7.47
2018-07-04T03:25:38.298Z,8.05
2018-07-04T03:26:34.720Z,7.10
2018-07-04T03:27:31.196Z,7.75
2018-07-04T03:28:27.851Z,8.58
2018-07-04T03:29:24.268Z,8.35
2018-07-04T03:30:20.896Z,7.37
2018-07-04T03:31:17.339Z,7.78
2018-07-04T03:32:13.818Z,7.35
2018-07-04T03:33:10.332Z,7.20
2018-07-04T03:34:06.866Z,8.38
2018-07-04T03:35:03.336Z,7.90
2018-07-04T03:35:59.946Z,7.40
2018-07-04T03:36:56.466Z,8.35
2018-07-04T03:37:52.958Z,7.67
2018-07-04T03:38:49.740Z,7.50
2018-07-04T03:39:46.282Z,7.95
2018-07-04T03:40:42.882Z,7.25
2018-07-04T03:41:39.400Z,8.73
2018-07-04T03:42:35.787Z,6.97
2018-07-04T03:43:34.007Z,7.83
2018-07-04T03:44:30.396Z,8.30
2018-07-04T03:45:26.854Z,8.00
2018-07-04T03:46:23.386Z,8.45
2018-07-04T03:47:19.798Z,8.28
2018-07-04T03:48:16.236Z,8.30
2018-07-04T03:49:12.871Z,8.90
2018-07-04T03:50:09.230Z,7.70
2018-07-04T03:51:05.985Z,7.95
2018-07-04T03:52:02.502Z,7.70
2018-07-04T03:52:58.958Z,7.95
2018-07-04T03:53:55.502Z,8.10
2018-07-04T03:54:51.987Z,8.43
2018-07-04T03:55:48.585Z,7.97
2018-07-04T03:56:45.206Z,8.10
2018-07-04T03:57:41.804Z,8.60
2018-07-04T03:58:38.282Z,8.88
2018-07-04T03:59:34.734Z,8.85
2018-07-04T04:00:31.426Z,8.90
2018-07-04T04:01:28.161Z,8.55
2018-07-04T04:02:24.865Z,9.45
2018-07-04T04:03:21.291Z,8.60
2018-07-04T04:04:17.946Z,8.35
2018-07-04T04:05:14.662Z,8.10
2018-07-04T04:06:11.099Z,8.83
2018-07-04T04:07:07.670Z,8.58
2018-07-04T04:08:04.243Z,8.93
2018-07-04T04:09:01.012Z,9.28
2018-07-04T04:09:57.594Z,9.05
2018-07-04T04:10:53.992Z,9.03
2018-07-04T04:11:50.581Z,8.88
2018-07-04T04:12:47.178Z,9.20
2018-07-04T04:13:43.694Z,9.28
2018-07-04T04:14:40.272Z,8.73
2018-07-04T04:15:37.140Z,8.88
2018-07-04T04:16:33.824Z,9.18
2018-07-04T04:17:30.272Z,9.45
2018-07-04T04:18:26.820Z,9.10
2018-07-04T04:19:31.414Z,9.20
2018-07-04T04:20:27.994Z,9.48
2018-07-04T04:21:24.543Z,9.45
2018-07-04T04:22:20.950Z,9.10
2018-07-04T04:23:17.394Z,8.85
2018-07-04T04:24:13.980Z,9.30
2018-07-04T04:25:10.600Z,9.48
2018-07-04T04:26:07.176Z,9.48
2018-07-04T04:27:03.819Z,9.45
2018-07-04T04:28:00.214Z,10.08
2018-07-04T04:28:56.754Z,9.70
2018-07-04T04:29:53.312Z,8.80
2018-07-04T04:30:49.654Z,9.05
2018-07-04T04:31:46.214Z,9.23
2018-07-04T04:32:42.975Z,9.13
2018-07-04T04:33:39.526Z,8.68
2018-07-04T04:34:35.811Z,9.08
2018-07-04T04:35:32.505Z,9.03
2018-07-04T04:36:29.030Z,7.95
2018-07-04T04:37:25.625Z,8.70
2018-07-04T04:38:22.116Z,9.03
2018-07-04T04:39:19.447Z,8.95
2018-07-04T04:40:16.058Z,9.40
2018-07-04T04:41:12.912Z,8.38
2018-07-04T04:42:09.460Z,8.88
2018-07-04T04:43:06.198Z,9.05
2018-07-04T04:44:02.798Z,9.03
2018-07-04T04:44:59.439Z,9.93
2018-07-04T04:45:55.960Z,8.88
2018-07-04T04:46:52.546Z,8.73
2018-07-04T04:47:49.072Z,9.05
2018-07-04T04:48:45.596Z,8.68
2018-07-04T04:49:42.276Z,8.48
2018-07-04T04:50:38.804Z,8.80
2018-07-04T04:51:35.508Z,8.65
2018-07-04T04:52:32.026Z,8.78
2018-07-04T04:53:28.864Z,8.73
2018-07-04T04:54:25.436Z,8.83
2018-07-04T04:55:22.001Z,8.93
2018-07-04T04:56:18.528Z,8.58
2018-07-04T04:57:14.950Z,8.40
2018-07-04T04:58:11.500Z,8.28
2018-07-04T04:59:08.099Z,8.18
2018-07-04T05:00:04.624Z,8.50
2018-07-04T05:01:01.252Z,8.40
2018-07-04T05:01:57.764Z,7.90
2018-07-04T05:02:54.246Z,9.03
2018-07-04T05:03:50.780Z,7.85
2018-07-04T05:04:47.412Z,7.78
2018-07-04T05:05:43.980Z,8.48
2018-07-04T05:06:40.614Z,8.15
2018-07-04T05:07:37.059Z,8.48
2018-07-04T05:08:33.700Z,8.93
2018-07-04T05:09:30.192Z,8.00
2018-07-04T05:10:26.645Z,8.13
2018-07-04T05:11:23.128Z,7.72
2018-07-04T05:12:19.680Z,8.23
2018-07-04T05:13:16.204Z,8.35
2018-07-04T05:14:12.684Z,7.70
2018-07-04T05:15:09.204Z,8.00
2018-07-04T05:16:05.700Z,7.22
2018-07-04T05:17:02.152Z,7.40
2018-07-04T05:17:58.598Z,7.87
2018-07-04T05:18:54.882Z,7.00
2018-07-04T05:19:51.546Z,7.12
2018-07-04T05:20:47.985Z,7.33
2018-07-04T05:21:44.385Z,7.75
2018-07-04T05:22:40.835Z,7.28
2018-07-04T05:23:37.166Z,6.60
2018-07-04T05:24:33.608Z,7.42
2018-07-04T05:25:29.919Z,7.33
2018-07-04T05:26:26.452Z,6.92
2018-07-04T05:27:22.766Z,6.65
2018-07-04T05:28:19.388Z,6.12
2018-07-04T05:29:15.656Z,6.92
2018-07-04T05:30:12.001Z,6.33
2018-07-04T05:31:08.538Z,6.50
2018-07-04T05:32:04.998Z,6.58
2018-07-04T05:33:01.497Z,6.55
2018-07-04T05:33:57.956Z,6.37
2018-07-04T05:34:54.485Z,6.83
2018-07-04T05:35:51.007Z,6.53
2018-07-04T05:36:47.522Z,6.17
2018-07-04T05:37:43.947Z,6.55
2018-07-04T05:38:40.497Z,5.67
2018-07-04T05:39:36.984Z,6.17
2018-07-04T05:40:33.534Z,6.45
2018-07-04T05:41:30.180Z,6.08
2018-07-04T05:42:26.571Z,5.75
2018-07-04T05:43:22.954Z,5.58
2018-07-04T05:44:19.467Z,4.75
2018-07-04T05:45:16.106Z,4.40
2018-07-04T05:46:12.722Z,4.08
2018-07-04T05:47:09.479Z,3.77
2018-07-04T05:48:05.970Z,4.05
2018-07-04T05:49:02.432Z,4.58
2018-07-04T05:49:59.172Z,4.03
2018-07-04T05:50:55.768Z,3.95
2018-07-04T05:51:52.336Z,4.00
2018-07-04T05:52:48.781Z,4.00
2018-07-04T05:53:45.354Z,3.87
2018-07-04T05:54:41.895Z,4.10
2018-07-04T05:55:38.562Z,4.60
2018-07-04T05:56:35.218Z,4.15
2018-07-04T05:57:32.162Z,4.22
2018-07-04T05:58:29.154Z,4.08
2018-07-04T05:59:25.736Z,4.30
2018-07-04T06:00:22.203Z,4.10
2018-07-04T06:01:18.854Z,4.03
2018-07-04T06:02:15.422Z,4.30
2018-07-04T06:03:12.053Z,3.95
2018-07-04T06:04:08.747Z,4.25
2018-07-04T06:05:05.249Z,3.58
2018-07-04T06:06:01.801Z,3.30
2018-07-04T06:06:58.440Z,3.22
2018-07-04T06:07:54.988Z,3.80
2018-07-04T06:08:51.498Z,4.53
2018-07-04T06:09:48.156Z,3.52
2018-07-04T06:10:44.732Z,3.92
2018-07-04T06:11:41.170Z,3.95
2018-07-04T06:12:37.716Z,3.42
2018-07-04T06:13:34.238Z,4.08
2018-07-04T06:14:30.758Z,3.70
2018-07-04T06:15:27.254Z,3.40
2018-07-04T06:16:23.698Z,3.55
2018-07-04T06:17:20.318Z,3.72
2018-07-04T06:18:16.747Z,3.70
2018-07-04T06:19:13.317Z,4.00
2018-07-04T06:20:10.166Z,3.90
2018-07-04T06:21:06.671Z,3.70
2018-07-04T06:22:03.310Z,3.98
2018-07-04T06:22:59.804Z,3.77
2018-07-04T06:23:56.278Z,3.35
2018-07-04T06:24:53.670Z,3.22
2018-07-04T06:25:50.124Z,3.50
2018-07-04T06:26:47.029Z,3.67
2018-07-04T06:27:43.704Z,3.50
2018-07-04T06:28:40.192Z,3.27
2018-07-04T06:29:36.490Z,3.60
2018-07-04T06:30:32.824Z,3.30
2018-07-04T06:31:29.162Z,3.40
2018-07-04T06:32:26.263Z,3.12
2018-07-04T06:33:23.138Z,3.17
2018-07-04T06:34:19.649Z,3.58
2018-07-04T06:35:16.130Z,3.40
2018-07-04T06:36:12.516Z,3.55
2018-07-04T06:37:09.006Z,3.50
2018-07-04T06:37:46.652Z,3.37
2018-07-04T06:38:18.120Z,3.20
2018-07-04T06:38:49.582Z,3.10
2018-07-04T06:39:21.177Z,3.53
2018-07-04T06:39:52.750Z,3.37
2018-07-04T06:40:24.226Z,3.12
2018-07-04T06:40:55.710Z,3.80
2018-07-04T06:41:27.188Z,3.30
2018-07-04T06:41:58.644Z,3.40
2018-07-04T06:42:30.144Z,3.27
2018-07-04T06:43:01.608Z,3.27
2018-07-04T06:43:33.088Z,3.20
2018-07-04T06:44:04.562Z,3.45
2018-07-04T06:44:36.046Z,3.00
2018-07-04T06:45:07.523Z,3.62
2018-07-04T06:45:38.994Z,3.85
2018-07-04T06:46:10.471Z,3.42
2018-07-04T06:46:41.947Z,3.30
2018-07-04T06:47:13.428Z,3.00
2018-07-04T06:47:44.902Z,3.52
2018-07-04T06:48:16.377Z,3.60
2018-07-04T06:48:47.871Z,3.30
2018-07-04T06:49:19.673Z,3.35
2018-07-04T06:49:51.166Z,3.00
2018-07-04T06:50:22.646Z,3.42
2018-07-04T06:50:54.125Z,3.25
2018-07-04T06:51:25.596Z,3.65
2018-07-04T06:51:57.093Z,3.50
2018-07-04T06:53:58.130Z,3.22
2018-07-04T06:54:29.675Z,3.33
2018-07-04T06:55:01.069Z,4.03
2018-07-04T06:55:32.524Z,3.27
2018-07-04T06:56:04.015Z,3.30
2018-07-04T06:56:35.495Z,3.40
2018-07-04T06:57:06.974Z,3.98
2018-07-04T06:57:38.447Z,3.17
2018-07-04T06:58:09.931Z,3.10
2018-07-04T06:58:41.412Z,2.98
2018-07-04T06:59:12.890Z,2.70
2018-07-04T06:59:44.402Z,2.90
2018-07-04T07:00:15.889Z,2.77
2018-07-04T07:00:47.604Z,3.00
2018-07-04T07:01:19.083Z,3.27
2018-07-04T07:01:50.609Z,2.98
2018-07-04T07:02:22.057Z,3.40
2018-07-04T07:03:12.451Z,3.35
2018-07-04T07:04:08.922Z,3.08
2018-07-04T07:05:05.487Z,3.05
2018-07-04T07:06:01.897Z,3.20
2018-07-04T07:06:58.338Z,2.77
2018-07-04T07:07:54.734Z,3.00
2018-07-04T07:08:51.322Z,2.77
2018-07-04T07:09:47.790Z,2.80
2018-07-04T07:10:44.235Z,2.83
2018-07-04T07:11:40.841Z,2.80
2018-07-04T07:12:37.482Z,3.20
2018-07-04T07:13:33.958Z,2.80
2018-07-04T07:14:30.441Z,2.80
2018-07-04T07:15:26.706Z,2.55
2018-07-04T07:16:22.930Z,2.92
2018-07-04T07:17:19.214Z,3.15
2018-07-04T07:18:15.577Z,2.50
2018-07-04T07:19:11.792Z,2.77
2018-07-04T07:20:08.202Z,2.35
2018-07-04T07:21:04.584Z,2.65
2018-07-04T07:22:01.236Z,2.55
2018-07-04T07:22:57.738Z,2.65
2018-07-04T07:23:54.250Z,2.27
2018-07-04T07:24:50.709Z,2.40
2018-07-04T07:25:47.302Z,2.40
2018-07-04T07:26:43.974Z,2.20
2018-07-04T07:27:40.450Z,2.55
2018-07-04T07:28:36.888Z,2.30
2018-07-04T07:29:33.334Z,2.60
2018-07-04T07:30:29.842Z,2.70
2018-07-04T07:31:26.258Z,2.15
2018-07-04T07:32:22.894Z,2.52
2018-07-04T07:33:19.404Z,2.75
2018-07-04T07:34:16.040Z,2.40
2018-07-04T07:35:12.924Z,2.50
2018-07-04T07:36:09.397Z,2.33
2018-07-04T07:37:05.930Z,2.25
2018-07-04T07:38:02.442Z,2.35
2018-07-04T07:38:59.067Z,2.62
2018-07-04T07:39:55.621Z,2.65
2018-07-04T07:40:52.340Z,2.70
2018-07-04T07:41:48.870Z,2.40
2018-07-04T07:42:45.478Z,2.60
2018-07-04T07:43:41.954Z,2.27
2018-07-04T07:44:38.544Z,2.10
2018-07-04T07:45:34.964Z,2.10
2018-07-04T07:46:31.474Z,2.40
2018-07-04T07:47:28.065Z,2.20
2018-07-04T07:48:24.782Z,2.37
2018-07-04T07:49:21.294Z,2.52
2018-07-04T07:50:17.842Z,2.80
2018-07-04T07:51:14.522Z,2.95
2018-07-04T07:52:11.044Z,2.35
2018-07-04T07:53:07.568Z,2.30
2018-07-04T07:54:04.019Z,2.58
2018-07-04T07:55:00.323Z,2.65
2018-07-04T07:55:56.732Z,2.33
2018-07-04T07:56:53.142Z,2.62
2018-07-04T07:57:49.582Z,2.47
2018-07-04T07:58:46.110Z,2.22
2018-07-04T07:59:42.520Z,2.20
2018-07-04T08:00:38.973Z,2.10
2018-07-04T08:01:35.270Z,2.20
2018-07-04T08:02:31.760Z,2.00
2018-07-04T08:03:28.333Z,2.20
2018-07-04T08:04:24.859Z,2.25
2018-07-04T08:05:21.286Z,2.33
2018-07-04T08:06:17.764Z,2.00
2018-07-04T08:07:14.214Z,2.45
2018-07-04T08:08:10.820Z,2.47
2018-07-04T08:09:07.394Z,2.37
2018-07-04T08:10:03.929Z,2.35
2018-07-04T08:11:00.798Z,2.30
2018-07-04T08:11:57.171Z,3.22
2018-07-04T08:12:53.507Z,2.80
2018-07-04T08:13:50.196Z,2.30
2018-07-04T08:14:46.765Z,2.37
2018-07-04T08:15:43.246Z,2.10
2018-07-04T08:16:39.666Z,2.52
2018-07-04T08:17:36.266Z,2.50
2018-07-04T08:18:32.812Z,2.60
2018-07-04T08:19:29.356Z,2.67
2018-07-04T08:20:25.703Z,2.17
2018-07-04T08:21:22.202Z,4.47
2018-07-04T08:22:18.627Z,3.02
2018-07-04T08:23:15.177Z,2.45
2018-07-04T08:24:11.838Z,2.20
2018-07-04T08:25:08.273Z,2.40
2018-07-04T08:26:04.872Z,2.20
2018-07-04T08:27:01.293Z,2.37
2018-07-04T08:27:57.616Z,2.30
2018-07-04T08:28:54.088Z,2.60
2018-07-04T08:29:50.863Z,2.23
2018-07-04T08:30:47.463Z,2.33
2018-07-04T08:31:44.124Z,2.02
2018-07-04T08:32:40.648Z,2.40
2018-07-04T08:33:37.484Z,2.33
2018-07-04T08:34:34.166Z,2.27
2018-07-04T08:35:30.614Z,2.20
2018-07-04T08:36:27.150Z,2.20
2018-07-04T08:37:23.469Z,2.30
2018-07-04T08:38:20.093Z,2.30
2018-07-04T08:39:16.692Z,1.95
2018-07-04T08:40:13.226Z,2.30
2018-07-04T08:41:10.807Z,2.35
2018-07-04T08:42:07.426Z,2.20
2018-07-04T08:43:04.262Z,2.67
2018-07-04T08:44:00.756Z,2.58
2018-07-04T08:44:57.364Z,2.15
2018-07-04T08:45:53.780Z,2.33
2018-07-04T08:46:50.288Z,2.27
2018-07-04T08:47:46.842Z,2.37
2018-07-04T08:48:43.420Z,2.10
2018-07-04T08:49:40.032Z,2.10
2018-07-04T08:50:36.651Z,1.90
2018-07-04T08:51:33.084Z,2.40
2018-07-04T08:52:29.960Z,2.02
2018-07-04T08:53:26.505Z,2.15
2018-07-04T08:54:23.140Z,1.98
2018-07-04T08:55:19.438Z,2.10
2018-07-04T08:56:15.940Z,2.40
2018-07-04T08:57:12.286Z,2.30
2018-07-04T08:58:08.982Z,2.35
2018-07-04T08:59:05.374Z,2.25
2018-07-04T09:00:01.933Z,2.15
2018-07-04T09:00:58.603Z,2.15
2018-07-04T09:01:55.156Z,2.50
2018-07-04T09:02:51.470Z,2.10
2018-07-04T09:03:47.966Z,2.27
2018-07-04T09:04:44.579Z,2.65
2018-07-04T09:05:41.165Z,2.30
2018-07-04T09:06:37.561Z,2.02
2018-07-04T09:07:33.888Z,2.10
2018-07-04T09:08:30.437Z,1.80
2018-07-04T09:09:26.905Z,2.40
2018-07-04T09:10:23.724Z,2.47
2018-07-04T09:11:20.416Z,1.95
2018-07-04T09:12:16.932Z,2.40
2018-07-04T09:13:13.560Z,2.10
2018-07-04T09:14:09.975Z,2.02
2018-07-04T09:15:06.381Z,2.10
2018-07-04T09:16:03.002Z,2.20
2018-07-04T09:16:59.708Z,1.98
2018-07-04T09:17:56.182Z,2.17
2018-07-04T09:18:52.700Z,2.30
2018-07-04T09:19:49.461Z,2.60
2018-07-04T09:20:45.858Z,2.42
2018-07-04T09:21:42.310Z,2.05
2018-07-04T09:22:38.974Z,2.27
2018-07-04T09:23:35.556Z,2.08
2018-07-04T09:24:32.368Z,2.02
2018-07-04T09:25:28.796Z,2.52
2018-07-04T09:26:25.274Z,2.02
2018-07-04T09:27:21.875Z,2.20
2018-07-04T09:28:18.473Z,2.22
2018-07-04T09:29:15.258Z,2.10
2018-07-04T09:30:11.824Z,2.30
2018-07-04T09:31:08.444Z,2.17
2018-07-04T09:32:04.928Z,2.22
2018-07-04T09:33:01.410Z,2.02
2018-07-04T09:33:58.126Z,2.20
2018-07-04T09:34:54.555Z,2.22
2018-07-04T09:35:51.098Z,2.02
2018-07-04T09:36:47.673Z,2.27
2018-07-04T09:37:44.308Z,2.10
2018-07-04T09:38:40.952Z,2.12
2018-07-04T09:39:37.290Z,2.15
2018-07-04T09:40:33.685Z,2.15
2018-07-04T09:41:30.225Z,2.40
2018-07-04T09:42:26.850Z,2.40
2018-07-04T09:43:23.292Z,2.35
2018-07-04T09:44:19.983Z,2.30
2018-07-04T09:45:16.524Z,2.10
2018-07-04T09:46:12.905Z,2.10
2018-07-04T09:47:09.598Z,1.90
2018-07-04T09:48:06.229Z,1.95
2018-07-04T09:49:02.876Z,2.00
2018-07-04T09:49:59.394Z,2.37
2018-07-04T09:50:55.905Z,2.12
2018-07-04T09:51:52.351Z,2.00
2018-07-04T09:52:48.986Z,2.10
2018-07-04T09:53:45.879Z,2.45
2018-07-04T09:54:42.409Z,3.02
2018-07-04T09:55:39.000Z,2.65
2018-07-04T09:56:35.471Z,2.45
2018-07-04T09:57:31.909Z,2.47
2018-07-04T09:58:28.404Z,2.10
2018-07-04T09:59:24.803Z,2.15
2018-07-04T10:00:27.956Z,2.20
2018-07-04T10:01:25.703Z,2.30
2018-07-04T10:02:22.189Z,2.27
2018-07-04T10:03:18.685Z,2.40
2018-07-04T10:04:15.135Z,2.43
2018-07-04T10:05:11.592Z,2.45
2018-07-04T10:06:08.135Z,2.10
2018-07-04T10:07:04.583Z,2.70
2018-07-04T10:08:01.356Z,2.67
2018-07-04T10:08:58.080Z,2.40
2018-07-04T10:09:54.483Z,2.50
2018-07-04T10:10:51.084Z,2.25
2018-07-04T10:11:47.724Z,2.50
2018-07-04T10:12:44.224Z,2.50
2018-07-04T10:13:40.640Z,2.20
2018-07-04T10:14:37.350Z,2.52
2018-07-04T10:15:33.742Z,2.70
2018-07-04T10:16:30.265Z,2.20
2018-07-04T10:17:26.783Z,2.50
2018-07-04T10:18:23.374Z,2.40
2018-07-04T10:19:19.860Z,2.20
2018-07-04T10:20:16.309Z,2.20
2018-07-04T10:21:12.601Z,2.20
2018-07-04T10:22:09.026Z,2.20
2018-07-04T10:23:05.705Z,2.42
2018-07-04T10:24:02.354Z,2.35
2018-07-04T10:24:59.039Z,2.15
2018-07-04T10:25:55.365Z,2.55
2018-07-04T10:26:51.998Z,2.40
2018-07-04T10:27:48.652Z,2.02
2018-07-04T10:28:45.216Z,2.62
2018-07-04T10:29:42.032Z,2.17
2018-07-04T10:30:38.458Z,2.52
2018-07-04T10:31:35.144Z,2.33
2018-07-04T10:32:31.737Z,2.42
2018-07-04T10:33:28.166Z,2.20
2018-07-04T10:34:24.726Z,2.20
2018-07-04T10:35:21.292Z,2.45
2018-07-04T10:36:17.906Z,2.30
2018-07-04T10:37:14.307Z,2.62
2018-07-04T10:38:11.110Z,2.10
2018-07-04T10:39:07.806Z,2.40
2018-07-04T10:40:04.228Z,2.72
2018-07-04T10:41:00.544Z,2.62
2018-07-04T10:41:56.973Z,2.52
2018-07-04T10:42:53.280Z,2.62
2018-07-04T10:43:49.736Z,2.83
2018-07-04T10:44:46.471Z,2.15
2018-07-04T10:45:43.164Z,2.75
2018-07-04T10:46:39.782Z,2.75
2018-07-04T10:47:36.366Z,2.60
2018-07-04T10:48:32.674Z,2.83
2018-07-04T10:49:29.162Z,2.80
2018-07-04T10:50:25.764Z,2.58
2018-07-04T10:51:22.270Z,2.52
2018-07-04T10:52:19.018Z,2.77
2018-07-04T10:53:15.820Z,2.20
2018-07-04T10:54:12.438Z,2.60
2018-07-04T10:55:08.930Z,2.67
2018-07-04T10:56:05.592Z,2.65
2018-07-04T10:57:02.248Z,2.30
2018-07-04T10:57:58.812Z,2.70
2018-07-04T10:58:55.390Z,2.72
2018-07-04T10:59:52.934Z,2.33
2018-07-04T11:00:49.490Z,2.65
2018-07-04T11:01:46.064Z,2.45
2018-07-04T11:02:42.733Z,2.80
2018-07-04T11:03:39.313Z,2.62
2018-07-04T11:04:36.107Z,2.75
2018-07-04T11:05:32.675Z,3.02
2018-07-04T11:06:29.021Z,2.42
2018-07-04T11:07:25.759Z,2.70
2018-07-04T11:08:22.409Z,3.00
2018-07-04T11:09:18.977Z,2.80
2018-07-04T11:10:15.608Z,2.25
2018-07-04T11:11:12.118Z,2.90
2018-07-04T11:12:08.795Z,2.50
2018-07-04T11:13:05.539Z,2.50
2018-07-04T11:14:02.187Z,2.37
2018-07-04T11:14:58.655Z,2.33
2018-07-04T11:15:55.235Z,2.67
2018-07-04T11:16:51.826Z,2.37
2018-07-04T11:17:48.232Z,2.70
2018-07-04T11:18:44.746Z,2.90
2018-07-04T11:19:41.245Z,2.98
2018-07-04T11:20:37.794Z,3.12
2018-07-04T11:21:34.106Z,2.72
2018-07-04T11:22:30.436Z,2.90
2018-07-04T11:23:26.875Z,2.70
2018-07-04T11:24:23.463Z,2.92
2018-07-04T11:25:20.001Z,3.20
2018-07-04T11:26:16.447Z,2.95
2018-07-04T11:27:13.239Z,2.75
2018-07-04T11:28:09.662Z,2.70
2018-07-04T11:29:06.112Z,2.95
2018-07-04T11:30:02.506Z,2.80
2018-07-04T11:30:58.902Z,2.98
2018-07-04T11:31:55.234Z,2.72
2018-07-04T11:32:51.778Z,2.83
2018-07-04T11:33:48.397Z,3.00
2018-07-04T11:34:45.021Z,3.00
2018-07-04T11:35:41.471Z,2.62
2018-07-04T11:36:38.343Z,2.67
2018-07-04T11:37:34.945Z,3.33
2018-07-04T11:38:31.445Z,2.80
2018-07-04T11:39:27.979Z,2.90
2018-07-04T11:40:24.594Z,2.73
2018-07-04T11:41:21.132Z,2.40
2018-07-04T11:42:17.520Z,2.70
2018-07-04T11:43:13.907Z,2.72
2018-07-04T11:44:10.317Z,2.58
2018-07-04T11:45:06.838Z,2.80
2018-07-04T11:45:55.744Z,2.62
2018-07-04T11:46:27.244Z,2.58
2018-07-04T11:46:59.493Z,2.80
2018-07-04T11:47:31.005Z,2.72
2018-07-04T11:48:02.469Z,2.75
2018-07-04T11:48:33.979Z,2.27
2018-07-04T11:49:05.441Z,2.77
2018-07-04T11:49:36.911Z,2.98
2018-07-04T11:50:08.376Z,2.98
2018-07-04T11:50:39.859Z,2.92
2018-07-04T11:51:11.355Z,2.50
2018-07-04T11:51:42.819Z,2.70
2018-07-04T11:52:14.327Z,2.50
2018-07-04T11:52:45.779Z,2.80
2018-07-04T11:53:17.392Z,2.42
2018-07-04T11:53:48.835Z,2.60
2018-07-04T11:54:20.308Z,2.72
2018-07-04T11:54:51.787Z,2.45
2018-07-04T11:55:23.269Z,2.85
2018-07-04T11:55:54.789Z,2.67
2018-07-04T11:56:26.270Z,2.92
2018-07-04T11:56:57.764Z,2.40
2018-07-04T11:57:29.227Z,2.77
2018-07-04T11:58:00.715Z,2.75
2018-07-04T11:58:32.301Z,2.67
2018-07-04T11:59:03.787Z,3.20
2018-07-04T11:59:35.263Z,3.15
2018-07-04T12:00:06.732Z,3.25
2018-07-04T12:00:38.239Z,3.10
2018-07-04T12:01:09.725Z,2.80
2018-07-04T12:01:41.248Z,2.85
2018-07-04T12:02:12.709Z,2.80
2018-07-04T12:02:44.200Z,2.87